sensor_id;sensor_type;location;lat;lon;timestamp;P1;durP1;ratioP1;P2;durP2;ratioP2
2706;SDS011;7819;48.046;7.642;2023-07-29T00:01:36;4.30;;;1.87;;
2706;SDS011;7819;48.046;7.642;2023-07-29T00:04:01;2.93;;;2.10;;
2706;SDS011;7819;48.046;7.642;2023-07-29T00:06:27;2.53;;;2.33;;
2706;SDS011;7819;48.046;7.642;2023-07-29T00:08:52;2.77;;;2.27;;
2706;SDS011;7819;48.046;7.642;2023-07-29T00:11:17;2.80;;;2.47;;
2706;SDS011;7819;48.046;7.642;2023-07-29T00:13:42;2.30;;;2.10;;
2706;SDS011;7819;48.046;7.642;2023-07-29T00:16:07;3.70;;;2.10;;
2706;SDS011;7819;48.046;7.642;2023-07-29T00:18:33;2.20;;;2.00;;
2706;SDS011;7819;48.046;7.642;2023-07-29T00:20:58;2.90;;;2.17;;
2706;SDS011;7819;48.046;7.642;2023-07-29T00:23:23;2.17;;;1.97;;
2706;SDS011;7819;48.046;7.642;2023-07-29T00:25:48;4.80;;;2.63;;
2706;SDS011;7819;48.046;7.642;2023-07-29T00:28:13;2.90;;;1.90;;
2706;SDS011;7819;48.046;7.642;2023-07-29T00:30:39;2.30;;;2.10;;
2706;SDS011;7819;48.046;7.642;2023-07-29T00:33:04;2.73;;;2.20;;
2706;SDS011;7819;48.046;7.642;2023-07-29T00:35:29;2.77;;;2.37;;
2706;SDS011;7819;48.046;7.642;2023-07-29T00:37:54;2.80;;;2.60;;
2706;SDS011;7819;48.046;7.642;2023-07-29T00:40:20;4.37;;;2.37;;
2706;SDS011;7819;48.046;7.642;2023-07-29T00:42:46;2.30;;;2.10;;
2706;SDS011;7819;48.046;7.642;2023-07-29T00:45:12;2.40;;;2.20;;
2706;SDS011;7819;48.046;7.642;2023-07-29T00:47:37;2.63;;;2.43;;
2706;SDS011;7819;48.046;7.642;2023-07-29T00:50:03;2.60;;;2.40;;
2706;SDS011;7819;48.046;7.642;2023-07-29T00:52:28;2.40;;;2.20;;
2706;SDS011;7819;48.046;7.642;2023-07-29T00:54:53;2.50;;;2.30;;
2706;SDS011;7819;48.046;7.642;2023-07-29T00:57:19;2.50;;;2.30;;
2706;SDS011;7819;48.046;7.642;2023-07-29T00:59:44;2.70;;;2.50;;
2706;SDS011;7819;48.046;7.642;2023-07-29T01:02:09;3.20;;;2.60;;
2706;SDS011;7819;48.046;7.642;2023-07-29T01:04:34;2.43;;;2.20;;
2706;SDS011;7819;48.046;7.642;2023-07-29T01:07:21;2.70;;;2.50;;
2706;SDS011;7819;48.046;7.642;2023-07-29T01:10:01;2.80;;;2.60;;
2706;SDS011;7819;48.046;7.642;2023-07-29T01:15:05;4.00;;;2.30;;
2706;SDS011;7819;48.046;7.642;2023-07-29T01:17:33;2.70;;;2.50;;
2706;SDS011;7819;48.046;7.642;2023-07-29T01:20:07;2.63;;;2.43;;
2706;SDS011;7819;48.046;7.642;2023-07-29T01:22:33;2.87;;;2.67;;
2706;SDS011;7819;48.046;7.642;2023-07-29T01:24:59;3.07;;;2.87;;
2706;SDS011;7819;48.046;7.642;2023-07-29T01:27:24;3.20;;;2.57;;
2706;SDS011;7819;48.046;7.642;2023-07-29T01:29:50;4.80;;;3.07;;
2706;SDS011;7819;48.046;7.642;2023-07-29T01:32:17;4.40;;;2.73;;
2706;SDS011;7819;48.046;7.642;2023-07-29T01:34:48;4.50;;;2.97;;
2706;SDS011;7819;48.046;7.642;2023-07-29T01:37:18;3.00;;;2.80;;
2706;SDS011;7819;48.046;7.642;2023-07-29T01:39:45;3.30;;;2.47;;
2706;SDS011;7819;48.046;7.642;2023-07-29T01:42:11;2.97;;;2.77;;
2706;SDS011;7819;48.046;7.642;2023-07-29T01:44:37;3.07;;;2.77;;
2706;SDS011;7819;48.046;7.642;2023-07-29T01:47:02;2.80;;;2.60;;
2706;SDS011;7819;48.046;7.642;2023-07-29T01:49:27;3.17;;;2.87;;
2706;SDS011;7819;48.046;7.642;2023-07-29T01:51:52;3.83;;;2.77;;
2706;SDS011;7819;48.046;7.642;2023-07-29T01:54:18;3.10;;;2.80;;
2706;SDS011;7819;48.046;7.642;2023-07-29T01:56:43;4.77;;;3.03;;
2706;SDS011;7819;48.046;7.642;2023-07-29T01:59:08;2.93;;;2.63;;
2706;SDS011;7819;48.046;7.642;2023-07-29T02:01:33;5.57;;;3.00;;
2706;SDS011;7819;48.046;7.642;2023-07-29T02:03:58;3.83;;;2.57;;
2706;SDS011;7819;48.046;7.642;2023-07-29T02:06:24;2.90;;;2.60;;
2706;SDS011;7819;48.046;7.642;2023-07-29T02:08:49;3.20;;;2.90;;
2706;SDS011;7819;48.046;7.642;2023-07-29T02:11:15;3.07;;;2.77;;
2706;SDS011;7819;48.046;7.642;2023-07-29T02:13:40;2.70;;;2.50;;
2706;SDS011;7819;48.046;7.642;2023-07-29T02:16:05;3.10;;;2.80;;
2706;SDS011;7819;48.046;7.642;2023-07-29T02:18:30;2.13;;;1.93;;
2706;SDS011;7819;48.046;7.642;2023-07-29T02:20:55;2.53;;;2.33;;
2706;SDS011;7819;48.046;7.642;2023-07-29T02:23:20;2.77;;;2.57;;
2706;SDS011;7819;48.046;7.642;2023-07-29T02:25:46;3.73;;;2.60;;
2706;SDS011;7819;48.046;7.642;2023-07-29T02:28:11;4.80;;;3.10;;
2706;SDS011;7819;48.046;7.642;2023-07-29T02:30:36;3.70;;;2.80;;
2706;SDS011;7819;48.046;7.642;2023-07-29T02:33:01;2.97;;;2.53;;
2706;SDS011;7819;48.046;7.642;2023-07-29T02:35:27;5.13;;;2.80;;
2706;SDS011;7819;48.046;7.642;2023-07-29T02:37:52;3.17;;;2.87;;
2706;SDS011;7819;48.046;7.642;2023-07-29T02:40:17;4.00;;;3.10;;
2706;SDS011;7819;48.046;7.642;2023-07-29T02:42:43;4.27;;;3.93;;
2706;SDS011;7819;48.046;7.642;2023-07-29T02:45:08;4.80;;;2.53;;
2706;SDS011;7819;48.046;7.642;2023-07-29T02:47:35;4.23;;;2.90;;
2706;SDS011;7819;48.046;7.642;2023-07-29T02:50:01;3.10;;;2.90;;
2706;SDS011;7819;48.046;7.642;2023-07-29T02:52:26;3.23;;;3.03;;
2706;SDS011;7819;48.046;7.642;2023-07-29T02:54:51;6.23;;;2.97;;
2706;SDS011;7819;48.046;7.642;2023-07-29T02:57:16;3.43;;;2.93;;
2706;SDS011;7819;48.046;7.642;2023-07-29T02:59:42;3.73;;;3.43;;
2706;SDS011;7819;48.046;7.642;2023-07-29T03:02:07;3.10;;;2.90;;
2706;SDS011;7819;48.046;7.642;2023-07-29T03:04:32;3.20;;;2.90;;
2706;SDS011;7819;48.046;7.642;2023-07-29T03:06:57;3.30;;;3.00;;
2706;SDS011;7819;48.046;7.642;2023-07-29T03:09:24;3.07;;;2.77;;
2706;SDS011;7819;48.046;7.642;2023-07-29T03:11:49;3.70;;;2.83;;
2706;SDS011;7819;48.046;7.642;2023-07-29T03:14:15;2.93;;;2.73;;
2706;SDS011;7819;48.046;7.642;2023-07-29T03:16:41;2.80;;;2.60;;
2706;SDS011;7819;48.046;7.642;2023-07-29T03:19:06;3.83;;;2.57;;
2706;SDS011;7819;48.046;7.642;2023-07-29T03:21:31;3.00;;;2.80;;
2706;SDS011;7819;48.046;7.642;2023-07-29T03:23:56;2.40;;;2.20;;
2706;SDS011;7819;48.046;7.642;2023-07-29T03:26:22;2.77;;;2.57;;
2706;SDS011;7819;48.046;7.642;2023-07-29T03:28:47;3.97;;;3.67;;
2706;SDS011;7819;48.046;7.642;2023-07-29T03:31:12;2.80;;;2.60;;
2706;SDS011;7819;48.046;7.642;2023-07-29T03:33:37;3.80;;;2.70;;
2706;SDS011;7819;48.046;7.642;2023-07-29T03:36:03;3.20;;;2.90;;
2706;SDS011;7819;48.046;7.642;2023-07-29T03:38:28;2.60;;;2.40;;
2706;SDS011;7819;48.046;7.642;2023-07-29T03:40:53;3.10;;;2.27;;
2706;SDS011;7819;48.046;7.642;2023-07-29T03:43:19;2.67;;;2.47;;
2706;SDS011;7819;48.046;7.642;2023-07-29T03:45:44;3.30;;;3.10;;
2706;SDS011;7819;48.046;7.642;2023-07-29T03:48:09;3.27;;;2.90;;
2706;SDS011;7819;48.046;7.642;2023-07-29T03:50:35;3.27;;;2.53;;
2706;SDS011;7819;48.046;7.642;2023-07-29T03:53:00;3.50;;;2.77;;
2706;SDS011;7819;48.046;7.642;2023-07-29T03:55:26;3.07;;;2.70;;
2706;SDS011;7819;48.046;7.642;2023-07-29T03:57:51;2.77;;;2.57;;
2706;SDS011;7819;48.046;7.642;2023-07-29T04:00:16;2.30;;;2.10;;
2706;SDS011;7819;48.046;7.642;2023-07-29T04:02:42;2.57;;;2.30;;
2706;SDS011;7819;48.046;7.642;2023-07-29T04:05:07;6.20;;;2.60;;
2706;SDS011;7819;48.046;7.642;2023-07-29T04:07:35;2.50;;;2.30;;
2706;SDS011;7819;48.046;7.642;2023-07-29T04:10:01;3.40;;;2.10;;
2706;SDS011;7819;48.046;7.642;2023-07-29T04:12:26;3.33;;;2.50;;
2706;SDS011;7819;48.046;7.642;2023-07-29T04:14:51;2.40;;;2.20;;
2706;SDS011;7819;48.046;7.642;2023-07-29T04:17:17;3.13;;;2.93;;
2706;SDS011;7819;48.046;7.642;2023-07-29T04:19:42;3.20;;;2.20;;
2706;SDS011;7819;48.046;7.642;2023-07-29T04:22:07;2.80;;;2.47;;
2706;SDS011;7819;48.046;7.642;2023-07-29T04:24:32;3.80;;;2.50;;
2706;SDS011;7819;48.046;7.642;2023-07-29T04:26:57;5.03;;;3.73;;
2706;SDS011;7819;48.046;7.642;2023-07-29T04:29:22;2.67;;;2.47;;
2706;SDS011;7819;48.046;7.642;2023-07-29T04:31:48;3.33;;;2.70;;
2706;SDS011;7819;48.046;7.642;2023-07-29T04:34:13;3.33;;;2.70;;
2706;SDS011;7819;48.046;7.642;2023-07-29T04:36:38;2.87;;;2.57;;
2706;SDS011;7819;48.046;7.642;2023-07-29T04:39:04;2.93;;;2.70;;
2706;SDS011;7819;48.046;7.642;2023-07-29T04:41:29;2.80;;;2.60;;
2706;SDS011;7819;48.046;7.642;2023-07-29T04:43:54;2.90;;;2.70;;
2706;SDS011;7819;48.046;7.642;2023-07-29T04:46:19;3.00;;;2.80;;
2706;SDS011;7819;48.046;7.642;2023-07-29T04:48:44;3.10;;;2.60;;
2706;SDS011;7819;48.046;7.642;2023-07-29T04:51:09;3.08;;;2.70;;
2706;SDS011;7819;48.046;7.642;2023-07-29T04:53:35;2.70;;;2.50;;
2706;SDS011;7819;48.046;7.642;2023-07-29T04:56:02;4.63;;;2.60;;
2706;SDS011;7819;48.046;7.642;2023-07-29T04:58:27;2.60;;;2.13;;
2706;SDS011;7819;48.046;7.642;2023-07-29T05:00:54;2.67;;;2.30;;
2706;SDS011;7819;48.046;7.642;2023-07-29T05:03:19;2.53;;;2.33;;
2706;SDS011;7819;48.046;7.642;2023-07-29T05:05:44;3.43;;;2.60;;
2706;SDS011;7819;48.046;7.642;2023-07-29T05:08:10;2.80;;;2.60;;
2706;SDS011;7819;48.046;7.642;2023-07-29T05:10:35;2.97;;;2.77;;
2706;SDS011;7819;48.046;7.642;2023-07-29T05:13:00;3.83;;;2.57;;
2706;SDS011;7819;48.046;7.642;2023-07-29T05:15:26;2.97;;;2.50;;
2706;SDS011;7819;48.046;7.642;2023-07-29T05:17:51;4.20;;;3.10;;
2706;SDS011;7819;48.046;7.642;2023-07-29T05:20:16;2.70;;;2.50;;
2706;SDS011;7819;48.046;7.642;2023-07-29T05:22:41;3.90;;;3.50;;
2706;SDS011;7819;48.046;7.642;2023-07-29T05:25:06;4.90;;;3.40;;
2706;SDS011;7819;48.046;7.642;2023-07-29T05:27:32;3.00;;;2.77;;
2706;SDS011;7819;48.046;7.642;2023-07-29T05:29:57;5.53;;;2.77;;
2706;SDS011;7819;48.046;7.642;2023-07-29T05:32:22;3.70;;;2.90;;
2706;SDS011;7819;48.046;7.642;2023-07-29T05:34:48;2.70;;;2.50;;
2706;SDS011;7819;48.046;7.642;2023-07-29T05:37:13;2.97;;;2.73;;
2706;SDS011;7819;48.046;7.642;2023-07-29T05:39:38;3.57;;;2.90;;
2706;SDS011;7819;48.046;7.642;2023-07-29T05:42:03;4.23;;;3.37;;
2706;SDS011;7819;48.046;7.642;2023-07-29T05:44:28;3.37;;;3.10;;
2706;SDS011;7819;48.046;7.642;2023-07-29T05:46:55;4.10;;;3.70;;
2706;SDS011;7819;48.046;7.642;2023-07-29T05:49:20;3.40;;;3.10;;
2706;SDS011;7819;48.046;7.642;2023-07-29T05:51:46;3.57;;;3.37;;
2706;SDS011;7819;48.046;7.642;2023-07-29T05:54:11;4.07;;;3.67;;
2706;SDS011;7819;48.046;7.642;2023-07-29T05:56:36;3.00;;;2.80;;
2706;SDS011;7819;48.046;7.642;2023-07-29T05:59:01;3.70;;;3.40;;
2706;SDS011;7819;48.046;7.642;2023-07-29T06:01:26;3.03;;;2.67;;
2706;SDS011;7819;48.046;7.642;2023-07-29T06:03:51;3.47;;;3.27;;
2706;SDS011;7819;48.046;7.642;2023-07-29T06:06:17;3.57;;;3.27;;
2706;SDS011;7819;48.046;7.642;2023-07-29T06:08:42;3.27;;;2.97;;
2706;SDS011;7819;48.046;7.642;2023-07-29T06:11:07;3.43;;;3.13;;
2706;SDS011;7819;48.046;7.642;2023-07-29T06:13:32;3.10;;;2.90;;
2706;SDS011;7819;48.046;7.642;2023-07-29T06:15:58;3.40;;;3.10;;
2706;SDS011;7819;48.046;7.642;2023-07-29T06:18:23;3.17;;;2.83;;
2706;SDS011;7819;48.046;7.642;2023-07-29T06:20:48;4.83;;;2.80;;
2706;SDS011;7819;48.046;7.642;2023-07-29T06:23:14;3.80;;;3.50;;
2706;SDS011;7819;48.046;7.642;2023-07-29T06:25:39;3.90;;;3.57;;
2706;SDS011;7819;48.046;7.642;2023-07-29T06:28:04;3.70;;;3.47;;
2706;SDS011;7819;48.046;7.642;2023-07-29T06:30:29;3.97;;;3.67;;
2706;SDS011;7819;48.046;7.642;2023-07-29T06:32:55;4.43;;;3.83;;
2706;SDS011;7819;48.046;7.642;2023-07-29T06:35:20;3.57;;;3.37;;
2706;SDS011;7819;48.046;7.642;2023-07-29T06:37:45;4.43;;;4.10;;
2706;SDS011;7819;48.046;7.642;2023-07-29T06:40:11;4.20;;;3.80;;
2706;SDS011;7819;48.046;7.642;2023-07-29T06:42:36;4.53;;;4.23;;
2706;SDS011;7819;48.046;7.642;2023-07-29T06:45:02;4.10;;;3.80;;
2706;SDS011;7819;48.046;7.642;2023-07-29T06:47:28;4.13;;;3.90;;
2706;SDS011;7819;48.046;7.642;2023-07-29T06:49:53;5.47;;;5.07;;
2706;SDS011;7819;48.046;7.642;2023-07-29T06:52:18;4.50;;;4.10;;
2706;SDS011;7819;48.046;7.642;2023-07-29T06:54:44;4.50;;;4.20;;
2706;SDS011;7819;48.046;7.642;2023-07-29T06:57:09;5.10;;;4.60;;
2706;SDS011;7819;48.046;7.642;2023-07-29T06:59:34;5.70;;;5.20;;
2706;SDS011;7819;48.046;7.642;2023-07-29T07:01:59;4.83;;;4.47;;
2706;SDS011;7819;48.046;7.642;2023-07-29T07:04:25;5.17;;;4.77;;
2706;SDS011;7819;48.046;7.642;2023-07-29T07:06:50;4.67;;;4.27;;
2706;SDS011;7819;48.046;7.642;2023-07-29T07:09:15;4.03;;;3.77;;
2706;SDS011;7819;48.046;7.642;2023-07-29T07:11:40;3.57;;;3.27;;
2706;SDS011;7819;48.046;7.642;2023-07-29T07:14:06;3.60;;;2.67;;
2706;SDS011;7819;48.046;7.642;2023-07-29T07:16:31;2.30;;;2.10;;
2706;SDS011;7819;48.046;7.642;2023-07-29T07:18:56;1.80;;;1.70;;
2706;SDS011;7819;48.046;7.642;2023-07-29T07:21:21;2.27;;;2.07;;
2706;SDS011;7819;48.046;7.642;2023-07-29T07:23:48;2.00;;;1.70;;
2706;SDS011;7819;48.046;7.642;2023-07-29T07:26:14;3.80;;;1.43;;
2706;SDS011;7819;48.046;7.642;2023-07-29T07:28:39;2.30;;;1.50;;
2706;SDS011;7819;48.046;7.642;2023-07-29T07:31:04;2.00;;;1.47;;
2706;SDS011;7819;48.046;7.642;2023-07-29T07:33:29;1.93;;;1.50;;
2706;SDS011;7819;48.046;7.642;2023-07-29T07:35:54;4.60;;;1.50;;
2706;SDS011;7819;48.046;7.642;2023-07-29T07:38:19;1.67;;;1.20;;
2706;SDS011;7819;48.046;7.642;2023-07-29T07:40:57;1.70;;;1.37;;
2706;SDS011;7819;48.046;7.642;2023-07-29T07:43:23;3.00;;;1.43;;
2706;SDS011;7819;48.046;7.642;2023-07-29T07:45:48;1.90;;;1.50;;
2706;SDS011;7819;48.046;7.642;2023-07-29T07:48:13;1.50;;;1.10;;
2706;SDS011;7819;48.046;7.642;2023-07-29T07:50:39;2.10;;;1.30;;
2706;SDS011;7819;48.046;7.642;2023-07-29T07:53:04;4.13;;;1.40;;
2706;SDS011;7819;48.046;7.642;2023-07-29T07:55:29;2.00;;;1.40;;
2706;SDS011;7819;48.046;7.642;2023-07-29T07:57:55;5.70;;;1.50;;
2706;SDS011;7819;48.046;7.642;2023-07-29T08:00:20;1.60;;;1.30;;
2706;SDS011;7819;48.046;7.642;2023-07-29T08:02:45;1.50;;;1.30;;
2706;SDS011;7819;48.046;7.642;2023-07-29T08:05:10;1.83;;;1.37;;
2706;SDS011;7819;48.046;7.642;2023-07-29T08:07:35;2.70;;;1.60;;
2706;SDS011;7819;48.046;7.642;2023-07-29T08:10:01;2.50;;;1.60;;
2706;SDS011;7819;48.046;7.642;2023-07-29T08:12:26;2.13;;;1.93;;
2706;SDS011;7819;48.046;7.642;2023-07-29T08:14:51;2.53;;;1.50;;
2706;SDS011;7819;48.046;7.642;2023-07-29T08:17:16;1.80;;;1.63;;
2706;SDS011;7819;48.046;7.642;2023-07-29T08:19:41;1.40;;;1.27;;
2706;SDS011;7819;48.046;7.642;2023-07-29T08:22:06;1.60;;;1.40;;
2706;SDS011;7819;48.046;7.642;2023-07-29T08:24:32;2.97;;;1.57;;
2706;SDS011;7819;48.046;7.642;2023-07-29T08:26:57;2.40;;;1.40;;
2706;SDS011;7819;48.046;7.642;2023-07-29T08:29:22;2.10;;;1.50;;
2706;SDS011;7819;48.046;7.642;2023-07-29T08:31:47;3.10;;;1.50;;
2706;SDS011;7819;48.046;7.642;2023-07-29T08:34:12;2.43;;;1.43;;
2706;SDS011;7819;48.046;7.642;2023-07-29T08:36:38;2.37;;;1.70;;
2706;SDS011;7819;48.046;7.642;2023-07-29T08:39:03;3.60;;;1.83;;
2706;SDS011;7819;48.046;7.642;2023-07-29T08:41:32;2.00;;;1.17;;
2706;SDS011;7819;48.046;7.642;2023-07-29T08:46:26;2.47;;;1.77;;
2706;SDS011;7819;48.046;7.642;2023-07-29T08:48:53;2.07;;;1.63;;
2706;SDS011;7819;48.046;7.642;2023-07-29T08:51:18;2.70;;;1.40;;
2706;SDS011;7819;48.046;7.642;2023-07-29T08:53:44;1.90;;;1.43;;
2706;SDS011;7819;48.046;7.642;2023-07-29T08:56:10;3.10;;;1.77;;
2706;SDS011;7819;48.046;7.642;2023-07-29T08:58:35;2.73;;;1.83;;
2706;SDS011;7819;48.046;7.642;2023-07-29T09:01:01;3.73;;;1.30;;
2706;SDS011;7819;48.046;7.642;2023-07-29T09:03:26;2.57;;;1.10;;
2706;SDS011;7819;48.046;7.642;2023-07-29T09:05:51;1.80;;;1.70;;
2706;SDS011;7819;48.046;7.642;2023-07-29T09:08:17;2.50;;;1.73;;
2706;SDS011;7819;48.046;7.642;2023-07-29T09:10:43;2.40;;;1.60;;
2706;SDS011;7819;48.046;7.642;2023-07-29T09:13:08;1.83;;;1.27;;
2706;SDS011;7819;48.046;7.642;2023-07-29T09:15:34;1.70;;;1.40;;
2706;SDS011;7819;48.046;7.642;2023-07-29T09:18:08;1.83;;;1.40;;
2706;SDS011;7819;48.046;7.642;2023-07-29T09:20:33;1.80;;;1.43;;
2706;SDS011;7819;48.046;7.642;2023-07-29T09:22:59;1.70;;;1.40;;
2706;SDS011;7819;48.046;7.642;2023-07-29T09:25:27;1.77;;;1.38;;
2706;SDS011;7819;48.046;7.642;2023-07-29T09:27:53;2.10;;;1.13;;
2706;SDS011;7819;48.046;7.642;2023-07-29T09:30:23;2.92;;;1.45;;
2706;SDS011;7819;48.046;7.642;2023-07-29T09:32:52;1.80;;;1.40;;
2706;SDS011;7819;48.046;7.642;2023-07-29T09:35:17;2.50;;;1.50;;
2706;SDS011;7819;48.046;7.642;2023-07-29T09:37:43;1.88;;;1.48;;
2706;SDS011;7819;48.046;7.642;2023-07-29T09:40:13;2.23;;;1.60;;
2706;SDS011;7819;48.046;7.642;2023-07-29T09:42:38;5.40;;;1.60;;
2706;SDS011;7819;48.046;7.642;2023-07-29T09:45:05;2.80;;;1.87;;
2706;SDS011;7819;48.046;7.642;2023-07-29T09:47:30;1.80;;;1.50;;
2706;SDS011;7819;48.046;7.642;2023-07-29T09:49:55;2.03;;;1.80;;
2706;SDS011;7819;48.046;7.642;2023-07-29T09:52:21;2.80;;;1.87;;
2706;SDS011;7819;48.046;7.642;2023-07-29T09:54:47;2.07;;;1.87;;
2706;SDS011;7819;48.046;7.642;2023-07-29T09:57:16;1.70;;;1.50;;
2706;SDS011;7819;48.046;7.642;2023-07-29T09:59:41;2.03;;;1.80;;
2706;SDS011;7819;48.046;7.642;2023-07-29T10:02:13;2.00;;;1.80;;
2706;SDS011;7819;48.046;7.642;2023-07-29T10:04:41;2.67;;;1.97;;
2706;SDS011;7819;48.046;7.642;2023-07-29T10:07:06;2.73;;;2.00;;
2706;SDS011;7819;48.046;7.642;2023-07-29T10:09:32;3.20;;;1.97;;
2706;SDS011;7819;48.046;7.642;2023-07-29T10:11:57;3.30;;;2.53;;
2706;SDS011;7819;48.046;7.642;2023-07-29T10:14:23;1.93;;;1.70;;
2706;SDS011;7819;48.046;7.642;2023-07-29T10:16:48;2.67;;;1.90;;
2706;SDS011;7819;48.046;7.642;2023-07-29T10:19:14;2.17;;;1.97;;
2706;SDS011;7819;48.046;7.642;2023-07-29T10:21:41;3.60;;;2.40;;
2706;SDS011;7819;48.046;7.642;2023-07-29T10:24:11;2.27;;;1.50;;
2706;SDS011;7819;48.046;7.642;2023-07-29T10:26:39;2.73;;;1.80;;
2706;SDS011;7819;48.046;7.642;2023-07-29T10:29:05;1.93;;;1.73;;
2706;SDS011;7819;48.046;7.642;2023-07-29T10:31:33;2.07;;;1.57;;
2706;SDS011;7819;48.046;7.642;2023-07-29T10:33:59;2.73;;;1.83;;
2706;SDS011;7819;48.046;7.642;2023-07-29T10:36:24;3.70;;;2.30;;
2706;SDS011;7819;48.046;7.642;2023-07-29T10:38:49;2.20;;;1.90;;
2706;SDS011;7819;48.046;7.642;2023-07-29T10:41:14;2.20;;;1.70;;
2706;SDS011;7819;48.046;7.642;2023-07-29T10:43:40;2.60;;;2.40;;
2706;SDS011;7819;48.046;7.642;2023-07-29T10:46:15;1.97;;;1.67;;
2706;SDS011;7819;48.046;7.642;2023-07-29T10:48:44;2.97;;;1.80;;
2706;SDS011;7819;48.046;7.642;2023-07-29T10:53:46;1.90;;;1.70;;
2706;SDS011;7819;48.046;7.642;2023-07-29T10:56:12;1.90;;;1.70;;
2706;SDS011;7819;48.046;7.642;2023-07-29T10:58:37;3.00;;;1.50;;
2706;SDS011;7819;48.046;7.642;2023-07-29T11:01:02;2.27;;;1.53;;
2706;SDS011;7819;48.046;7.642;2023-07-29T11:03:37;2.40;;;1.63;;
2706;SDS011;7819;48.046;7.642;2023-07-29T11:06:04;1.83;;;1.50;;
2706;SDS011;7819;48.046;7.642;2023-07-29T11:08:29;2.10;;;1.47;;
2706;SDS011;7819;48.046;7.642;2023-07-29T11:11:02;2.53;;;1.90;;
2706;SDS011;7819;48.046;7.642;2023-07-29T11:13:29;2.07;;;1.63;;
2706;SDS011;7819;48.046;7.642;2023-07-29T11:15:54;1.50;;;1.30;;
2706;SDS011;7819;48.046;7.642;2023-07-29T11:18:20;2.50;;;1.40;;
2706;SDS011;7819;48.046;7.642;2023-07-29T11:20:45;1.90;;;1.53;;
2706;SDS011;7819;48.046;7.642;2023-07-29T11:23:11;3.20;;;1.33;;
2706;SDS011;7819;48.046;7.642;2023-07-29T11:25:36;2.47;;;1.60;;
2706;SDS011;7819;48.046;7.642;2023-07-29T11:28:01;2.00;;;1.50;;
2706;SDS011;7819;48.046;7.642;2023-07-29T11:30:26;2.80;;;1.80;;
2706;SDS011;7819;48.046;7.642;2023-07-29T11:32:52;1.70;;;1.47;;
2706;SDS011;7819;48.046;7.642;2023-07-29T11:35:18;2.50;;;1.43;;
2706;SDS011;7819;48.046;7.642;2023-07-29T11:37:47;2.50;;;1.53;;
2706;SDS011;7819;48.046;7.642;2023-07-29T11:40:13;1.70;;;0.93;;
2706;SDS011;7819;48.046;7.642;2023-07-29T11:42:39;1.70;;;1.27;;
2706;SDS011;7819;48.046;7.642;2023-07-29T11:45:04;1.60;;;1.43;;
2706;SDS011;7819;48.046;7.642;2023-07-29T11:47:31;2.07;;;1.10;;
2706;SDS011;7819;48.046;7.642;2023-07-29T11:50:01;2.43;;;1.70;;
2706;SDS011;7819;48.046;7.642;2023-07-29T11:52:27;1.53;;;1.20;;
2706;SDS011;7819;48.046;7.642;2023-07-29T11:54:52;1.70;;;1.30;;
2706;SDS011;7819;48.046;7.642;2023-07-29T11:57:17;2.17;;;1.60;;
2706;SDS011;7819;48.046;7.642;2023-07-29T11:59:46;3.03;;;1.40;;
2706;SDS011;7819;48.046;7.642;2023-07-29T12:02:12;1.53;;;1.03;;
2706;SDS011;7819;48.046;7.642;2023-07-29T12:04:38;2.37;;;1.10;;
2706;SDS011;7819;48.046;7.642;2023-07-29T12:07:04;4.83;;;1.53;;
2706;SDS011;7819;48.046;7.642;2023-07-29T12:09:29;3.03;;;1.50;;
2706;SDS011;7819;48.046;7.642;2023-07-29T12:11:55;2.10;;;1.70;;
2706;SDS011;7819;48.046;7.642;2023-07-29T12:14:20;1.73;;;1.20;;
2706;SDS011;7819;48.046;7.642;2023-07-29T12:16:47;2.37;;;1.20;;
2706;SDS011;7819;48.046;7.642;2023-07-29T12:19:13;2.00;;;1.40;;
2706;SDS011;7819;48.046;7.642;2023-07-29T12:21:38;1.50;;;1.00;;
2706;SDS011;7819;48.046;7.642;2023-07-29T12:24:05;1.97;;;1.20;;
2706;SDS011;7819;48.046;7.642;2023-07-29T12:26:30;1.60;;;1.10;;
2706;SDS011;7819;48.046;7.642;2023-07-29T12:28:55;2.10;;;1.30;;
2706;SDS011;7819;48.046;7.642;2023-07-29T12:31:21;1.87;;;1.10;;
2706;SDS011;7819;48.046;7.642;2023-07-29T12:33:47;2.20;;;1.40;;
2706;SDS011;7819;48.046;7.642;2023-07-29T12:36:12;3.40;;;1.50;;
2706;SDS011;7819;48.046;7.642;2023-07-29T12:38:37;2.40;;;1.20;;
2706;SDS011;7819;48.046;7.642;2023-07-29T12:41:02;1.90;;;1.35;;
2706;SDS011;7819;48.046;7.642;2023-07-29T12:43:27;2.40;;;1.20;;
2706;SDS011;7819;48.046;7.642;2023-07-29T12:45:53;1.40;;;0.97;;
2706;SDS011;7819;48.046;7.642;2023-07-29T12:48:18;2.63;;;2.03;;
2706;SDS011;7819;48.046;7.642;2023-07-29T12:50:43;1.90;;;1.40;;
2706;SDS011;7819;48.046;7.642;2023-07-29T12:53:08;2.60;;;2.33;;
2706;SDS011;7819;48.046;7.642;2023-07-29T12:55:36;2.13;;;1.40;;
2706;SDS011;7819;48.046;7.642;2023-07-29T12:58:02;2.00;;;1.40;;
2706;SDS011;7819;48.046;7.642;2023-07-29T13:00:27;2.33;;;1.07;;
2706;SDS011;7819;48.046;7.642;2023-07-29T13:02:53;2.07;;;1.30;;
2706;SDS011;7819;48.046;7.642;2023-07-29T13:05:18;2.00;;;1.33;;
2706;SDS011;7819;48.046;7.642;2023-07-29T13:07:43;2.80;;;1.27;;
2706;SDS011;7819;48.046;7.642;2023-07-29T13:10:09;1.50;;;1.00;;
2706;SDS011;7819;48.046;7.642;2023-07-29T13:12:34;1.97;;;1.43;;
2706;SDS011;7819;48.046;7.642;2023-07-29T13:14:59;2.10;;;1.30;;
2706;SDS011;7819;48.046;7.642;2023-07-29T13:17:24;1.93;;;1.30;;
2706;SDS011;7819;48.046;7.642;2023-07-29T13:19:50;2.00;;;1.50;;
2706;SDS011;7819;48.046;7.642;2023-07-29T13:22:15;2.20;;;0.93;;
2706;SDS011;7819;48.046;7.642;2023-07-29T13:24:40;3.50;;;1.13;;
2706;SDS011;7819;48.046;7.642;2023-07-29T13:27:05;2.00;;;1.40;;
2706;SDS011;7819;48.046;7.642;2023-07-29T13:29:31;1.93;;;1.27;;
2706;SDS011;7819;48.046;7.642;2023-07-29T13:31:56;2.17;;;1.40;;
2706;SDS011;7819;48.046;7.642;2023-07-29T13:34:21;2.40;;;1.10;;
2706;SDS011;7819;48.046;7.642;2023-07-29T13:36:47;2.57;;;1.20;;
2706;SDS011;7819;48.046;7.642;2023-07-29T13:39:12;4.00;;;1.30;;
2706;SDS011;7819;48.046;7.642;2023-07-29T13:41:37;1.80;;;1.60;;
2706;SDS011;7819;48.046;7.642;2023-07-29T13:44:02;2.50;;;1.50;;
2706;SDS011;7819;48.046;7.642;2023-07-29T13:46:27;2.60;;;1.60;;
2706;SDS011;7819;48.046;7.642;2023-07-29T13:48:53;1.93;;;1.20;;
2706;SDS011;7819;48.046;7.642;2023-07-29T13:51:18;2.67;;;1.40;;
2706;SDS011;7819;48.046;7.642;2023-07-29T13:53:43;2.20;;;1.30;;
2706;SDS011;7819;48.046;7.642;2023-07-29T13:56:08;2.20;;;1.63;;
2706;SDS011;7819;48.046;7.642;2023-07-29T13:58:33;1.97;;;1.60;;
2706;SDS011;7819;48.046;7.642;2023-07-29T14:00:58;2.10;;;1.40;;
2706;SDS011;7819;48.046;7.642;2023-07-29T14:03:24;4.40;;;1.70;;
2706;SDS011;7819;48.046;7.642;2023-07-29T14:05:49;1.70;;;1.37;;
2706;SDS011;7819;48.046;7.642;2023-07-29T14:08:14;2.93;;;1.87;;
2706;SDS011;7819;48.046;7.642;2023-07-29T14:10:39;2.07;;;1.40;;
2706;SDS011;7819;48.046;7.642;2023-07-29T14:13:04;2.17;;;1.53;;
2706;SDS011;7819;48.046;7.642;2023-07-29T14:15:29;1.67;;;1.40;;
2706;SDS011;7819;48.046;7.642;2023-07-29T14:17:57;2.07;;;1.77;;
2706;SDS011;7819;48.046;7.642;2023-07-29T14:20:22;1.73;;;1.57;;
2706;SDS011;7819;48.046;7.642;2023-07-29T14:22:47;2.63;;;1.23;;
2706;SDS011;7819;48.046;7.642;2023-07-29T14:25:13;2.07;;;1.60;;
2706;SDS011;7819;48.046;7.642;2023-07-29T14:27:39;4.30;;;1.43;;
2706;SDS011;7819;48.046;7.642;2023-07-29T14:30:04;2.70;;;1.73;;
2706;SDS011;7819;48.046;7.642;2023-07-29T14:32:30;1.73;;;1.57;;
2706;SDS011;7819;48.046;7.642;2023-07-29T14:34:55;2.77;;;1.90;;
2706;SDS011;7819;48.046;7.642;2023-07-29T14:37:20;2.30;;;1.47;;
2706;SDS011;7819;48.046;7.642;2023-07-29T14:39:46;2.73;;;1.77;;
2706;SDS011;7819;48.046;7.642;2023-07-29T14:42:11;1.83;;;1.63;;
2706;SDS011;7819;48.046;7.642;2023-07-29T14:44:36;6.77;;;1.90;;
2706;SDS011;7819;48.046;7.642;2023-07-29T14:47:02;2.77;;;1.43;;
2706;SDS011;7819;48.046;7.642;2023-07-29T14:49:27;2.73;;;2.07;;
2706;SDS011;7819;48.046;7.642;2023-07-29T14:51:52;4.87;;;1.90;;
2706;SDS011;7819;48.046;7.642;2023-07-29T14:54:17;3.03;;;1.73;;
2706;SDS011;7819;48.046;7.642;2023-07-29T14:56:42;5.80;;;4.87;;
2706;SDS011;7819;48.046;7.642;2023-07-29T14:59:08;2.60;;;2.00;;
2706;SDS011;7819;48.046;7.642;2023-07-29T15:01:33;6.10;;;2.33;;
2706;SDS011;7819;48.046;7.642;2023-07-29T15:03:58;3.70;;;2.20;;
2706;SDS011;7819;48.046;7.642;2023-07-29T15:06:23;2.70;;;1.73;;
2706;SDS011;7819;48.046;7.642;2023-07-29T15:08:49;2.30;;;1.80;;
2706;SDS011;7819;48.046;7.642;2023-07-29T15:11:14;2.30;;;1.53;;
2706;SDS011;7819;48.046;7.642;2023-07-29T15:13:39;1.90;;;1.60;;